Time,TemperatureF,DewpointF,PressureIn,WindDirection,WindDirectionDegrees,WindSpeedMPH,WindSpeedGustMPH,Humidity,HourlyPrecipIn,Conditions,Clouds,dailyrainin,SoftwareType,DateUTC
2013-07-08 00:00:00,74.0,71.2,30.12,SSE,152,0.0,0.0,91,0.00,,,0.00,WeatherCatV1.11B39,2013-07-08 04:00:00,
2013-07-08 00:01:00,74.0,71.2,30.12,SSE,152,0.0,0.0,91,0.00,,,0.00,WeatherCatV1.11B39,2013-07-08 04:01:00,
2013-07-08 00:06:00,74.0,71.2,30.12,SSE,152,0.0,0.0,91,0.00,,,0.00,WeatherCatV1.11B39,2013-07-08 04:06:00,
2013-07-08 00:11:00,74.0,71.2,30.12,SSE,152,0.0,0.0,91,0.00,,,0.00,WeatherCatV1.11B39,2013-07-08 04:11:00,
2013-07-08 00:16:00,74.0,71.2,30.12,SSE,152,0.0,0.0,91,0.00,,,0.00,WeatherCatV1.11B39,2013-07-08 04:16:00,
2013-07-08 00:21:00,74.0,71.2,30.12,SSE,152,0.0,0.0,91,0.00,,,0.00,WeatherCatV1.11B39,2013-07-08 04:21:00,
2013-07-08 00:26:00,74.0,71.2,30.12,SSE,152,0.0,0.0,91,0.00,,,0.00,WeatherCatV1.11B39,2013-07-08 04:26:00,
2013-07-08 00:31:00,74.0,71.2,30.12,SSE,152,0.0,0.0,91,0.00,,,0.00,WeatherCatV1.11B39,2013-07-08 04:31:00,
2013-07-08 00:36:00,73.7,70.9,30.12,SSE,152,0.0,0.0,91,0.00,,,0.00,WeatherCatV1.11B39,2013-07-08 04:36:00,
2013-07-08 00:41:00,73.7,70.9,30.12,SSE,152,0.0,0.0,91,0.00,,,0.00,WeatherCatV1.11B39,2013-07-08 04:41:00,
2013-07-08 00:46:00,73.7,70.9,30.12,SSE,152,0.0,0.0,91,0.00,,,0.00,WeatherCatV1.11B39,2013-07-08 04:46:00,
2013-07-08 00:51:00,73.7,71.2,30.12,SSE,152,0.0,0.0,92,0.00,,,0.00,WeatherCatV1.11B39,2013-07-08 04:51:00,
2013-07-08 00:56:00,73.7,71.2,30.12,SSE,152,0.0,0.0,92,0.00,,,0.00,WeatherCatV1.11B39,2013-07-08 04:56:00,
2013-07-08 01:01:00,73.7,71.2,30.11,SSE,152,0.0,0.0,92,0.00,,,0.00,WeatherCatV1.11B39,2013-07-08 05:01:00,
2013-07-08 01:06:00,73.7,71.2,30.11,SSE,152,0.0,0.0,92,0.00,,,0.00,WeatherCatV1.11B39,2013-07-08 05:06:00,
2013-07-08 01:11:00,73.7,71.2,30.11,SSE,152,0.0,0.0,92,0.00,,,0.00,WeatherCatV1.11B39,2013-07-08 05:11:00,
2013-07-08 01:16:00,73.7,71.2,30.10,SSE,152,0.0,0.0,92,0.00,,,0.00,WeatherCatV1.11B39,2013-07-08 05:16:00,
2013-07-08 01:21:00,73.5,71.0,30.10,SSE,152,0.0,0.0,92,0.00,,,0.00,WeatherCatV1.11B39,2013-07-08 05:21:00,
2013-07-08 01:26:00,73.7,71.2,30.10,SSE,152,0.0,0.0,92,0.00,,,0.00,WeatherCatV1.11B39,2013-07-08 05:26:00,
2013-07-08 01:31:00,73.7,71.2,30.11,SSE,152,0.0,0.0,92,0.00,,,0.00,WeatherCatV1.11B39,2013-07-08 05:31:00,
2013-07-08 01:36:00,73.7,71.2,30.11,SSE,152,0.0,0.0,92,0.00,,,0.00,WeatherCatV1.11B39,2013-07-08 05:36:00,
2013-07-08 01:41:00,73.7,71.2,30.11,SSE,152,0.0,0.0,92,0.00,,,0.00,WeatherCatV1.11B39,2013-07-08 05:41:00,
2013-07-08 01:46:00,73.7,71.2,30.11,SSE,152,0.0,0.0,92,0.00,,,0.00,WeatherCatV1.11B39,2013-07-08 05:46:00,
2013-07-08 01:51:00,74.2,72.0,30.11,SSE,152,0.0,0.0,93,0.00,,,0.00,WeatherCatV1.11B39,2013-07-08 05:51:00,
2013-07-08 01:56:00,74.2,72.0,30.11,SSE,152,0.0,0.0,93,0.00,,,0.00,WeatherCatV1.11B39,2013-07-08 05:56:00,
2013-07-08 02:01:00,74.2,72.0,30.11,SSE,152,0.0,0.0,93,0.00,,,0.00,WeatherCatV1.11B39,2013-07-08 06:01:00,
2013-07-08 02:06:00,74.2,72.0,30.11,SSE,152,0.0,0.0,93,0.00,,,0.00,WeatherCatV1.11B39,2013-07-08 06:06:00,
2013-07-08 02:11:00,74.0,71.8,30.11,SSE,152,0.0,0.0,93,0.00,,,0.00,WeatherCatV1.11B39,2013-07-08 06:11:00,
2013-07-08 02:16:00,74.0,71.8,30.11,SSE,152,0.0,0.0,93,0.00,,,0.00,WeatherCatV1.11B39,2013-07-08 06:16:00,
2013-07-08 02:21:00,74.0,71.8,30.11,SSE,152,0.0,0.0,93,0.00,,,0.00,WeatherCatV1.11B39,2013-07-08 06:21:00,
2013-07-08 02:26:00,73.9,71.7,30.11,SSE,152,0.0,0.0,93,0.00,,,0.00,WeatherCatV1.11B39,2013-07-08 06:26:00,
2013-07-08 02:32:00,73.9,71.7,30.11,SSE,152,0.0,0.0,93,0.00,,,0.00,WeatherCatV1.11B39,2013-07-08 06:32:00,
2013-07-08 02:37:00,73.9,71.7,30.11,SSE,152,0.0,0.0,93,0.00,,,0.00,WeatherCatV1.11B39,2013-07-08 06:37:00,
2013-07-08 02:42:00,73.9,71.7,30.11,SSE,152,0.0,0.0,93,0.00,,,0.00,WeatherCatV1.11B39,2013-07-08 06:42:00,
2013-07-08 02:47:00,73.7,71.5,30.11,SSE,152,0.0,0.0,93,0.00,,,0.00,WeatherCatV1.11B39,2013-07-08 06:47:00,
2013-07-08 02:52:00,73.7,71.5,30.11,SSE,152,0.0,0.0,93,0.00,,,0.00,WeatherCatV1.11B39,2013-07-08 06:52:00,
2013-07-08 02:57:00,73.7,71.5,30.11,SSE,152,0.0,0.0,93,0.00,,,0.00,WeatherCatV1.11B39,2013-07-08 06:57:00,
2013-07-08 03:02:00,73.7,71.5,30.11,SSE,152,0.0,0.0,93,0.00,,,0.00,WeatherCatV1.11B39,2013-07-08 07:02:00,
2013-07-08 03:07:00,73.7,71.5,30.11,SSE,152,0.0,0.0,93,0.00,,,0.00,WeatherCatV1.11B39,2013-07-08 07:07:00,
2013-07-08 03:12:00,73.7,71.5,30.11,SSE,152,0.0,0.0,93,0.00,,,0.00,WeatherCatV1.11B39,2013-07-08 07:12:00,
2013-07-08 03:17:00,73.7,71.5,30.11,SSE,152,0.0,0.0,93,0.00,,,0.00,WeatherCatV1.11B39,2013-07-08 07:17:00,
2013-07-08 03:22:00,73.7,71.5,30.11,SSE,152,0.0,0.0,93,0.00,,,0.00,WeatherCatV1.11B39,2013-07-08 07:22:00,
2013-07-08 03:27:00,73.7,71.5,30.11,SSE,152,0.0,0.0,93,0.00,,,0.00,WeatherCatV1.11B39,2013-07-08 07:27:00,
2013-07-08 03:32:00,73.7,71.5,30.10,SSE,152,0.0,0.0,93,0.00,,,0.00,WeatherCatV1.11B39,2013-07-08 07:32:00,
2013-07-08 03:37:00,73.7,71.5,30.10,SSE,152,0.0,0.0,93,0.00,,,0.00,WeatherCatV1.11B39,2013-07-08 07:37:00,
2013-07-08 03:42:00,73.3,71.1,30.10,SSE,152,0.0,0.0,93,0.00,,,0.00,WeatherCatV1.11B39,2013-07-08 07:42:00,
2013-07-08 03:47:00,73.3,71.1,30.10,SSE,152,0.0,0.0,93,0.00,,,0.00,WeatherCatV1.11B39,2013-07-08 07:47:00,
2013-07-08 03:52:00,73.2,71.0,30.10,SSE,152,0.0,0.0,93,0.00,,,0.00,WeatherCatV1.11B39,2013-07-08 07:52:00,
2013-07-08 03:57:00,73.0,70.8,30.10,SSE,152,0.0,0.0,93,0.00,,,0.00,WeatherCatV1.11B39,2013-07-08 07:57:00,
2013-07-08 04:02:00,73.0,70.8,30.11,SSE,152,0.0,0.0,93,0.00,,,0.00,WeatherCatV1.11B39,2013-07-08 08:02:00,
2013-07-08 04:07:00,72.8,70.7,30.11,SSE,152,0.0,0.0,93,0.00,,,0.00,WeatherCatV1.11B39,2013-07-08 08:07:00,
2013-07-08 04:12:00,72.8,70.7,30.11,SSE,152,0.0,0.0,93,0.00,,,0.00,WeatherCatV1.11B39,2013-07-08 08:12:00,
2013-07-08 04:17:00,72.8,70.7,30.11,SSE,152,0.0,0.0,93,0.00,,,0.00,WeatherCatV1.11B39,2013-07-08 08:17:00,
2013-07-08 04:22:00,72.7,70.6,30.11,SSE,152,0.0,0.0,93,0.00,,,0.00,WeatherCatV1.11B39,2013-07-08 08:22:00,
2013-07-08 04:27:00,72.7,70.6,30.11,SSE,152,0.0,0.0,93,0.00,,,0.00,WeatherCatV1.11B39,2013-07-08 08:27:00,
2013-07-08 04:32:00,72.7,70.6,30.11,SSE,152,0.0,0.0,93,0.00,,,0.00,WeatherCatV1.11B39,2013-07-08 08:32:00,
2013-07-08 04:37:00,72.7,70.6,30.11,SSE,152,0.0,0.0,93,0.00,,,0.00,WeatherCatV1.11B39,2013-07-08 08:37:00,
2013-07-08 04:42:00,72.7,70.6,30.11,SSE,152,0.0,0.0,93,0.00,,,0.00,WeatherCatV1.11B39,2013-07-08 08:42:00,
2013-07-08 04:47:00,72.7,70.6,30.10,SSE,152,0.0,0.0,93,0.00,,,0.00,WeatherCatV1.11B39,2013-07-08 08:47:00,
2013-07-08 04:52:00,72.7,70.6,30.10,SSE,152,0.0,0.0,93,0.00,,,0.00,WeatherCatV1.11B39,2013-07-08 08:52:00,
2013-07-08 04:57:00,72.7,70.6,30.10,SSE,152,0.0,0.0,93,0.00,,,0.00,WeatherCatV1.11B39,2013-07-08 08:57:00,
2013-07-08 05:02:00,72.7,70.6,30.10,SSE,152,0.0,0.0,93,0.00,,,0.00,WeatherCatV1.11B39,2013-07-08 09:02:00,
2013-07-08 05:07:00,72.7,70.6,30.10,SSE,152,0.0,0.0,93,0.00,,,0.00,WeatherCatV1.11B39,2013-07-08 09:07:00,
2013-07-08 05:12:00,72.7,70.6,30.10,SSE,152,0.0,0.0,93,0.00,,,0.00,WeatherCatV1.11B39,2013-07-08 09:12:00,
2013-07-08 05:17:00,72.7,70.6,30.10,SSE,152,0.0,0.0,93,0.00,,,0.00,WeatherCatV1.11B39,2013-07-08 09:17:00,
2013-07-08 05:22:00,72.7,70.9,30.10,SSE,152,0.0,0.0,94,0.00,,,0.00,WeatherCatV1.11B39,2013-07-08 09:22:00,
2013-07-08 05:27:00,72.7,70.9,30.10,SSE,152,0.0,0.0,94,0.00,,,0.00,WeatherCatV1.11B39,2013-07-08 09:27:00,
2013-07-08 05:32:00,72.3,70.5,30.10,SSE,152,0.0,0.0,94,0.00,,,0.00,WeatherCatV1.11B39,2013-07-08 09:32:00,
2013-07-08 05:37:00,72.1,70.3,30.10,SSE,152,0.0,0.0,94,0.00,,,0.00,WeatherCatV1.11B39,2013-07-08 09:37:00,
2013-07-08 05:42:00,72.1,70.3,30.10,SSE,152,0.0,0.0,94,0.00,,,0.00,WeatherCatV1.11B39,2013-07-08 09:42:00,
2013-07-08 05:47:00,72.0,70.2,30.10,SSE,152,0.0,0.0,94,0.00,,,0.00,WeatherCatV1.11B39,2013-07-08 09:47:00,
2013-07-08 05:52:00,72.1,70.3,30.10,SSE,152,0.0,0.0,94,0.00,,,0.00,WeatherCatV1.11B39,2013-07-08 09:52:00,
2013-07-08 05:57:00,72.1,70.3,30.10,SSE,152,0.0,0.0,94,0.00,,,0.00,WeatherCatV1.11B39,2013-07-08 09:57:00,
2013-07-08 06:02:00,72.0,70.2,30.10,SSE,152,0.0,0.0,94,0.00,,,0.00,WeatherCatV1.11B39,2013-07-08 10:02:00,
2013-07-08 06:07:00,72.0,70.2,30.10,SSE,152,0.0,0.0,94,0.00,,,0.00,WeatherCatV1.11B39,2013-07-08 10:07:00,
2013-07-08 06:12:00,72.1,70.3,30.10,SSE,152,0.0,0.0,94,0.00,,,0.00,WeatherCatV1.11B39,2013-07-08 10:12:00,
2013-07-08 06:17:00,72.1,70.3,30.11,SSE,152,0.0,0.0,94,0.00,,,0.00,WeatherCatV1.11B39,2013-07-08 10:17:00,
2013-07-08 06:22:00,72.1,70.3,30.11,SSE,152,0.0,0.0,94,0.00,,,0.00,WeatherCatV1.11B39,2013-07-08 10:22:00,
2013-07-08 06:27:00,72.1,70.3,30.11,SSE,152,0.0,0.0,94,0.00,,,0.00,WeatherCatV1.11B39,2013-07-08 10:27:00,
2013-07-08 06:32:00,72.1,70.3,30.12,SSE,152,0.0,0.0,94,0.00,,,0.00,WeatherCatV1.11B39,2013-07-08 10:32:00,
2013-07-08 06:37:00,72.1,70.3,30.12,SSE,152,0.0,0.0,94,0.00,,,0.00,WeatherCatV1.11B39,2013-07-08 10:37:00,
2013-07-08 06:42:00,72.1,70.3,30.12,SSE,152,0.0,0.0,94,0.00,,,0.00,WeatherCatV1.11B39,2013-07-08 10:42:00,
2013-07-08 06:47:00,72.1,70.3,30.12,SSE,152,0.0,0.0,94,0.00,,,0.00,WeatherCatV1.11B39,2013-07-08 10:47:00,
2013-07-08 06:52:00,72.1,70.3,30.12,SSE,152,0.0,0.0,94,0.00,,,0.00,WeatherCatV1.11B39,2013-07-08 10:52:00,
2013-07-08 06:57:00,72.3,70.5,30.12,SSE,152,0.0,0.0,94,0.00,,,0.00,WeatherCatV1.11B39,2013-07-08 10:57:00,
2013-07-08 07:02:00,72.3,70.8,30.12,SSE,152,0.0,0.0,95,0.00,,,0.00,WeatherCatV1.11B39,2013-07-08 11:02:00,
2013-07-08 07:07:00,72.3,70.8,30.12,SSE,152,0.0,0.0,95,0.00,,,0.00,WeatherCatV1.11B39,2013-07-08 11:07:00,
2013-07-08 07:12:00,72.5,71.0,30.12,SSE,152,0.0,0.0,95,0.00,,,0.00,WeatherCatV1.11B39,2013-07-08 11:12:00,
2013-07-08 07:17:00,72.5,71.0,30.12,SSE,152,0.0,0.0,95,0.00,,,0.00,WeatherCatV1.11B39,2013-07-08 11:17:00,
2013-07-08 07:22:00,72.5,71.0,30.12,SSE,152,0.0,0.0,95,0.00,,,0.00,WeatherCatV1.11B39,2013-07-08 11:22:00,
2013-07-08 07:27:00,72.5,71.0,30.12,SSE,152,0.0,0.0,95,0.00,,,0.00,WeatherCatV1.11B39,2013-07-08 11:27:00,
2013-07-08 07:32:00,72.5,71.0,30.12,SSE,152,0.0,0.0,95,0.00,,,0.00,WeatherCatV1.11B39,2013-07-08 11:32:00,
2013-07-08 07:37:00,72.5,71.0,30.12,ESE,117,0.0,0.0,95,0.00,,,0.00,WeatherCatV1.11B39,2013-07-08 11:37:00,
2013-07-08 07:42:00,72.5,71.0,30.12,ESE,117,0.0,0.0,95,0.00,,,0.00,WeatherCatV1.11B39,2013-07-08 11:42:00,
2013-07-08 07:47:00,72.5,71.0,30.12,ESE,117,0.0,0.0,95,0.00,,,0.00,WeatherCatV1.11B39,2013-07-08 11:47:00,
2013-07-08 07:52:00,72.5,71.0,30.12,ESE,117,0.0,0.0,95,0.00,,,0.00,WeatherCatV1.11B39,2013-07-08 11:52:00,
2013-07-08 07:57:00,72.5,71.0,30.12,ESE,117,0.0,0.0,95,0.00,,,0.00,WeatherCatV1.11B39,2013-07-08 11:57:00,
2013-07-08 08:02:00,72.5,71.0,30.12,ESE,117,0.0,0.0,95,0.00,,,0.00,WeatherCatV1.11B39,2013-07-08 12:02:00,
2013-07-08 08:07:00,72.7,71.2,30.12,ESE,117,0.0,0.0,95,0.00,,,0.00,WeatherCatV1.11B39,2013-07-08 12:07:00,
2013-07-08 08:12:00,72.7,71.2,30.12,ESE,117,0.0,0.0,95,0.00,,,0.00,WeatherCatV1.11B39,2013-07-08 12:12:00,
2013-07-08 08:17:00,72.7,71.2,30.13,ESE,117,0.0,0.0,95,0.00,,,0.00,WeatherCatV1.11B39,2013-07-08 12:17:00,
2013-07-08 08:22:00,72.7,71.2,30.13,ESE,117,0.0,0.0,95,0.00,,,0.00,WeatherCatV1.11B39,2013-07-08 12:22:00,
2013-07-08 08:27:00,72.7,71.2,30.13,ESE,119,0.0,0.0,95,0.00,,,0.00,WeatherCatV1.11B39,2013-07-08 12:27:00,
2013-07-08 08:32:00,72.7,71.2,30.13,ESE,119,0.0,0.0,95,0.00,,,0.00,WeatherCatV1.11B39,2013-07-08 12:32:00,
2013-07-08 08:37:00,72.7,71.2,30.13,ESE,119,0.0,0.0,95,0.00,,,0.00,WeatherCatV1.11B39,2013-07-08 12:37:00,
2013-07-08 08:42:00,72.7,71.2,30.13,ESE,119,0.0,0.0,95,0.00,,,0.00,WeatherCatV1.11B39,2013-07-08 12:42:00,
2013-07-08 08:47:00,72.7,71.5,30.13,ESE,119,0.0,0.0,96,0.00,,,0.00,WeatherCatV1.11B39,2013-07-08 12:47:00,
2013-07-08 08:52:00,72.7,71.2,30.13,ESE,119,0.0,0.0,95,0.00,,,0.00,WeatherCatV1.11B39,2013-07-08 12:52:00,
2013-07-08 08:57:00,74.0,72.5,30.13,ESE,119,0.0,0.0,95,0.00,,,0.00,WeatherCatV1.11B39,2013-07-08 12:57:00,
2013-07-08 09:02:00,74.0,72.5,30.13,ESE,119,0.0,0.0,95,0.00,,,0.00,WeatherCatV1.11B39,2013-07-08 13:02:00,
2013-07-08 09:07:00,74.0,72.5,30.13,ESE,119,0.0,0.0,95,0.00,,,0.00,WeatherCatV1.11B39,2013-07-08 13:07:00,
2013-07-08 09:12:00,74.0,72.5,30.13,ESE,119,0.0,0.0,95,0.00,,,0.00,WeatherCatV1.11B39,2013-07-08 13:12:00,
2013-07-08 09:17:00,74.6,73.1,30.14,ESE,119,0.0,0.0,95,0.00,,,0.00,WeatherCatV1.11B39,2013-07-08 13:17:00,
2013-07-08 09:22:00,74.6,73.1,30.14,ESE,119,0.0,0.0,95,0.00,,,0.00,WeatherCatV1.11B39,2013-07-08 13:22:00,
2013-07-08 09:27:00,75.1,72.9,30.14,ESE,117,0.0,0.0,93,0.00,,,0.00,WeatherCatV1.11B39,2013-07-08 13:27:00,
2013-07-08 09:32:00,75.3,73.1,30.14,NE,37,0.0,0.0,93,0.00,,,0.00,WeatherCatV1.11B39,2013-07-08 13:32:00,
2013-07-08 09:37:00,75.4,73.2,30.14,North,0,0.0,0.0,93,0.00,,,0.00,WeatherCatV1.11B39,2013-07-08 13:37:00,
2013-07-08 09:42:00,75.8,73.6,30.14,North,356,0.0,0.0,93,0.00,,,0.00,WeatherCatV1.11B39,2013-07-08 13:42:00,
2013-07-08 09:47:00,76.0,73.8,30.14,North,356,0.0,0.0,93,0.00,,,0.00,WeatherCatV1.11B39,2013-07-08 13:47:00,
2013-07-08 09:52:00,76.1,73.9,30.14,North,357,0.0,0.0,93,0.00,,,0.00,WeatherCatV1.11B39,2013-07-08 13:52:00,
2013-07-08 09:57:00,76.0,73.8,30.14,North,357,0.0,0.0,93,0.00,,,0.00,WeatherCatV1.11B39,2013-07-08 13:57:00,
2013-07-08 10:02:00,76.0,73.8,30.14,North,357,0.0,0.0,93,0.00,,,0.00,WeatherCatV1.11B39,2013-07-08 14:02:00,
2013-07-08 10:07:00,76.0,72.8,30.14,North,357,0.0,0.0,90,0.00,,,0.00,WeatherCatV1.11B39,2013-07-08 14:07:00,
2013-07-08 10:12:00,76.5,73.3,30.14,North,357,0.0,0.0,90,0.00,,,0.00,WeatherCatV1.11B39,2013-07-08 14:12:00,
2013-07-08 10:17:00,76.5,73.3,30.14,North,357,0.0,0.0,90,0.00,,,0.00,WeatherCatV1.11B39,2013-07-08 14:17:00,
2013-07-08 10:22:00,76.5,73.3,30.14,North,357,0.0,0.0,90,0.00,,,0.00,WeatherCatV1.11B39,2013-07-08 14:22:00,
2013-07-08 10:27:00,76.5,73.0,30.14,North,357,0.0,0.0,89,0.00,,,0.00,WeatherCatV1.11B39,2013-07-08 14:27:00,
2013-07-08 10:32:00,76.5,73.0,30.14,North,10,0.0,0.0,89,0.00,,,0.00,WeatherCatV1.11B39,2013-07-08 14:32:00,
2013-07-08 10:37:00,76.5,73.0,30.14,NE,38,0.0,0.0,89,0.00,,,0.00,WeatherCatV1.11B39,2013-07-08 14:37:00,
2013-07-08 10:42:00,77.9,74.4,30.14,East,96,0.0,0.0,89,0.00,,,0.00,WeatherCatV1.11B39,2013-07-08 14:42:00,
2013-07-08 10:47:00,77.9,74.4,30.14,ESE,102,0.0,0.0,89,0.00,,,0.00,WeatherCatV1.11B39,2013-07-08 14:47:00,
2013-07-08 10:52:00,78.5,75.0,30.14,ESE,102,0.0,0.0,89,0.00,,,0.00,WeatherCatV1.11B39,2013-07-08 14:52:00,
2013-07-08 10:57:00,78.5,75.0,30.14,SE,140,0.0,0.0,89,0.00,,,0.00,WeatherCatV1.11B39,2013-07-08 14:57:00,
2013-07-08 11:02:00,78.5,75.0,30.15,SE,128,0.0,0.0,89,0.00,,,0.00,WeatherCatV1.11B39,2013-07-08 15:02:00,
2013-07-08 11:07:00,78.8,75.3,30.15,NW,316,0.0,0.0,89,0.00,,,0.00,WeatherCatV1.11B39,2013-07-08 15:07:00,
2013-07-08 11:12:00,79.0,75.5,30.15,South,171,0.0,0.0,89,0.00,,,0.00,WeatherCatV1.11B39,2013-07-08 15:12:00,
2013-07-08 11:17:00,79.2,75.7,30.15,SSE,148,0.0,0.0,89,0.00,,,0.00,WeatherCatV1.11B39,2013-07-08 15:17:00,
2013-07-08 11:22:00,79.2,75.7,30.15,SSE,150,0.0,0.0,89,0.00,,,0.00,WeatherCatV1.11B39,2013-07-08 15:22:00,
2013-07-08 11:27:00,79.2,75.7,30.15,SSE,150,0.0,0.0,89,0.00,,,0.00,WeatherCatV1.11B39,2013-07-08 15:27:00,
2013-07-08 11:32:00,79.2,75.7,30.15,SSE,150,0.0,0.0,89,0.00,,,0.00,WeatherCatV1.11B39,2013-07-08 15:32:00,
2013-07-08 11:37:00,79.8,73.8,30.15,SSE,150,0.0,0.0,82,0.00,,,0.00,WeatherCatV1.11B39,2013-07-08 15:37:00,
2013-07-08 11:42:00,79.8,73.8,30.15,SSE,150,0.0,0.0,82,0.00,,,0.00,WeatherCatV1.11B39,2013-07-08 15:42:00,
2013-07-08 11:47:00,79.8,73.8,30.14,SE,136,0.0,0.0,82,0.00,,,0.00,WeatherCatV1.11B39,2013-07-08 15:47:00,
2013-07-08 11:52:00,79.8,73.8,30.14,SE,136,0.0,0.0,82,0.00,,,0.00,WeatherCatV1.11B39,2013-07-08 15:52:00,
2013-07-08 11:57:00,79.9,73.9,30.14,SE,136,0.0,0.0,82,0.00,,,0.00,WeatherCatV1.11B39,2013-07-08 15:57:00,
2013-07-08 12:02:00,79.9,73.9,30.14,SE,133,0.0,0.0,82,0.00,,,0.00,WeatherCatV1.11B39,2013-07-08 16:02:00,
2013-07-08 12:07:00,80.1,74.1,30.14,SE,134,0.0,0.0,82,0.00,,,0.00,WeatherCatV1.11B39,2013-07-08 16:07:00,
2013-07-08 12:12:00,80.1,74.1,30.14,SE,137,0.0,0.0,82,0.00,,,0.00,WeatherCatV1.11B39,2013-07-08 16:12:00,
2013-07-08 12:17:00,80.1,74.1,30.14,SE,136,0.0,0.0,82,0.00,,,0.00,WeatherCatV1.11B39,2013-07-08 16:17:00,
2013-07-08 12:22:00,80.5,74.5,30.14,SE,136,0.0,0.0,82,0.00,,,0.00,WeatherCatV1.11B39,2013-07-08 16:22:00,
2013-07-08 12:27:00,80.7,74.7,30.14,SSE,151,0.0,0.0,82,0.00,,,0.00,WeatherCatV1.11B39,2013-07-08 16:27:00,
2013-07-08 12:32:00,80.7,74.7,30.14,SE,144,0.0,0.0,82,0.00,,,0.00,WeatherCatV1.11B39,2013-07-08 16:32:00,
2013-07-08 12:37:00,80.7,74.7,30.14,SE,144,0.0,0.0,82,0.00,,,0.00,WeatherCatV1.11B39,2013-07-08 16:37:00,
2013-07-08 12:42:00,81.1,75.1,30.14,SE,144,0.0,0.0,82,0.00,,,0.00,WeatherCatV1.11B39,2013-07-08 16:42:00,
2013-07-08 12:47:00,81.2,75.2,30.13,SSE,147,0.0,0.0,82,0.00,,,0.00,WeatherCatV1.11B39,2013-07-08 16:47:00,
2013-07-08 12:52:00,81.2,75.2,30.13,SSE,147,0.0,0.0,82,0.00,,,0.00,WeatherCatV1.11B39,2013-07-08 16:52:00,
2013-07-08 12:57:00,81.2,75.2,30.13,SSE,147,0.0,0.0,82,0.00,,,0.00,WeatherCatV1.11B39,2013-07-08 16:57:00,
2013-07-08 13:02:00,81.2,75.2,30.13,South,175,0.0,0.0,82,0.00,,,0.00,WeatherCatV1.11B39,2013-07-08 17:02:00,
2013-07-08 13:07:00,81.4,75.4,30.13,SSE,154,0.0,0.0,82,0.00,,,0.00,WeatherCatV1.11B39,2013-07-08 17:07:00,
2013-07-08 13:12:00,81.4,75.4,30.13,SSE,154,0.0,0.0,82,0.00,,,0.00,WeatherCatV1.11B39,2013-07-08 17:12:00,
2013-07-08 13:17:00,81.8,75.7,30.13,SSE,152,0.0,0.0,82,0.00,,,0.00,WeatherCatV1.11B39,2013-07-08 17:17:00,
2013-07-08 13:22:00,81.8,75.7,30.13,SSE,152,0.0,0.0,82,0.00,,,0.00,WeatherCatV1.11B39,2013-07-08 17:22:00,
2013-07-08 13:27:00,81.8,71.5,30.13,SSE,152,0.0,0.0,71,0.00,,,0.00,WeatherCatV1.11B39,2013-07-08 17:27:00,
2013-07-08 13:32:00,82.2,71.8,30.12,SSE,152,0.0,0.0,71,0.00,,,0.00,WeatherCatV1.11B39,2013-07-08 17:32:00,
2013-07-08 13:37:00,82.2,71.8,30.12,SSE,152,0.0,0.0,71,0.00,,,0.00,WeatherCatV1.11B39,2013-07-08 17:37:00,
2013-07-08 13:41:00,82.2,71.8,30.12,SSE,152,0.0,0.0,71,0.00,,,0.00,WeatherCatV1.11B39,2013-07-08 17:41:00,
2013-07-08 13:46:00,82.6,72.2,30.12,SSE,151,0.0,0.0,71,0.00,,,0.00,WeatherCatV1.11B39,2013-07-08 17:46:00,
2013-07-08 13:51:00,82.6,72.2,30.12,SSE,151,0.0,0.0,71,0.00,,,0.00,WeatherCatV1.11B39,2013-07-08 17:51:00,
2013-07-08 13:56:00,82.6,72.2,30.12,SSE,151,0.0,0.0,71,0.00,,,0.00,WeatherCatV1.11B39,2013-07-08 17:56:00,
2013-07-08 14:01:00,82.6,72.2,30.11,SSE,151,0.0,0.0,71,0.00,,,0.00,WeatherCatV1.11B39,2013-07-08 18:01:00,
2013-07-08 14:06:00,82.6,71.4,30.11,SSE,151,0.0,0.0,69,0.00,,,0.00,WeatherCatV1.11B39,2013-07-08 18:06:00,
2013-07-08 14:11:00,83.8,72.5,30.11,SSE,151,0.0,0.0,69,0.00,,,0.00,WeatherCatV1.11B39,2013-07-08 18:11:00,
2013-07-08 14:16:00,84.0,72.7,30.10,SE,143,0.0,0.0,69,0.00,,,0.00,WeatherCatV1.11B39,2013-07-08 18:16:00,
2013-07-08 14:21:00,84.0,72.7,30.10,WSW,258,0.0,0.0,69,0.00,,,0.00,WeatherCatV1.11B39,2013-07-08 18:21:00,
2013-07-08 14:26:00,84.3,72.1,30.10,WSW,258,0.0,0.0,67,0.00,,,0.00,WeatherCatV1.11B39,2013-07-08 18:26:00,
2013-07-08 14:31:00,84.3,72.1,30.10,South,181,0.0,0.0,67,0.00,,,0.00,WeatherCatV1.11B39,2013-07-08 18:31:00,
2013-07-08 14:36:00,84.3,72.1,30.10,South,181,0.0,0.0,67,0.00,,,0.00,WeatherCatV1.11B39,2013-07-08 18:36:00,
2013-07-08 14:41:00,84.5,71.4,30.10,SE,127,0.0,0.0,65,0.00,,,0.00,WeatherCatV1.11B39,2013-07-08 18:41:00,
2013-07-08 14:46:00,84.5,71.4,30.10,SE,128,0.0,0.0,65,0.00,,,0.00,WeatherCatV1.11B39,2013-07-08 18:46:00,
2013-07-08 14:51:00,84.5,71.4,30.10,SE,140,0.0,0.0,65,0.00,,,0.00,WeatherCatV1.11B39,2013-07-08 18:51:00,
2013-07-08 14:56:00,84.7,71.6,30.10,SE,140,0.0,0.0,65,0.00,,,0.00,WeatherCatV1.11B39,2013-07-08 18:56:00,
2013-07-08 15:01:00,84.9,71.8,30.09,SE,140,0.0,0.0,65,0.00,,,0.00,WeatherCatV1.11B39,2013-07-08 19:01:00,
2013-07-08 15:06:00,84.9,71.8,30.09,SE,140,0.0,0.0,65,0.00,,,0.00,WeatherCatV1.11B39,2013-07-08 19:06:00,
2013-07-08 15:11:00,84.9,71.8,30.09,SE,140,0.0,0.0,65,0.00,,,0.00,WeatherCatV1.11B39,2013-07-08 19:11:00,
2013-07-08 15:16:00,84.9,71.8,30.09,SE,141,0.0,0.0,65,0.00,,,0.00,WeatherCatV1.11B39,2013-07-08 19:16:00,
2013-07-08 15:21:00,84.9,71.8,30.09,SE,141,0.0,0.0,65,0.00,,,0.00,WeatherCatV1.11B39,2013-07-08 19:21:00,
2013-07-08 15:26:00,84.9,71.8,30.09,SE,141,0.0,0.0,65,0.00,,,0.00,WeatherCatV1.11B39,2013-07-08 19:26:00,
2013-07-08 15:31:00,84.5,71.4,30.08,SE,141,0.0,0.0,65,0.00,,,0.00,WeatherCatV1.11B39,2013-07-08 19:31:00,
2013-07-08 15:36:00,84.5,71.4,30.08,SE,141,0.0,0.0,65,0.00,,,0.00,WeatherCatV1.11B39,2013-07-08 19:36:00,
2013-07-08 15:41:00,84.5,71.4,30.08,SE,138,0.0,0.0,65,0.00,,,0.00,WeatherCatV1.11B39,2013-07-08 19:41:00,
2013-07-08 15:46:00,84.5,71.4,30.08,SE,138,0.0,0.0,65,0.00,,,0.00,WeatherCatV1.11B39,2013-07-08 19:46:00,
2013-07-08 15:51:00,84.5,71.4,30.08,SE,137,0.0,0.0,65,0.00,,,0.00,WeatherCatV1.11B39,2013-07-08 19:51:00,
2013-07-08 15:56:00,84.5,71.4,30.08,SE,137,0.0,0.0,65,0.00,,,0.00,WeatherCatV1.11B39,2013-07-08 19:56:00,
2013-07-08 16:01:00,84.3,71.2,30.08,SE,137,0.0,0.0,65,0.00,,,0.00,WeatherCatV1.11B39,2013-07-08 20:01:00,
2013-07-08 16:06:00,84.5,71.4,30.08,SE,137,0.0,0.0,65,0.00,,,0.00,WeatherCatV1.11B39,2013-07-08 20:06:00,
2013-07-08 16:11:00,84.7,71.6,30.08,SE,137,0.0,0.0,65,0.00,,,0.00,WeatherCatV1.11B39,2013-07-08 20:11:00,
2013-07-08 16:16:00,84.7,71.6,30.07,SE,137,0.0,0.0,65,0.00,,,0.00,WeatherCatV1.11B39,2013-07-08 20:16:00,
2013-07-08 16:21:00,84.5,76.5,30.07,SE,137,0.0,0.0,77,0.00,,,0.00,WeatherCatV1.11B39,2013-07-08 20:21:00,
2013-07-08 16:26:00,84.3,76.3,30.07,SE,137,0.0,0.0,77,0.00,,,0.00,WeatherCatV1.11B39,2013-07-08 20:26:00,
2013-07-08 16:31:00,84.1,76.1,30.06,SE,137,0.0,0.0,77,0.00,,,0.00,WeatherCatV1.11B39,2013-07-08 20:31:00,
2013-07-08 16:36:00,84.3,76.3,30.06,SE,137,0.0,0.0,77,0.00,,,0.00,WeatherCatV1.11B39,2013-07-08 20:36:00,
2013-07-08 16:41:00,84.3,76.3,30.06,SE,138,0.0,0.0,77,0.00,,,0.00,WeatherCatV1.11B39,2013-07-08 20:41:00,
2013-07-08 16:46:00,84.9,76.9,30.05,SE,143,0.0,0.0,77,0.00,,,0.00,WeatherCatV1.11B39,2013-07-08 20:46:00,
2013-07-08 16:51:00,85.1,75.4,30.05,SE,143,0.0,0.0,73,0.00,,,0.00,WeatherCatV1.11B39,2013-07-08 20:51:00,
2013-07-08 16:56:00,85.3,75.6,30.05,SE,134,0.0,0.0,73,0.00,,,0.00,WeatherCatV1.11B39,2013-07-08 20:56:00,
2013-07-08 17:01:00,85.3,75.6,30.06,SE,140,0.0,0.0,73,0.00,,,0.00,WeatherCatV1.11B39,2013-07-08 21:01:00,
2013-07-08 17:06:00,86.1,76.4,30.06,SSE,150,0.0,0.0,73,0.00,,,0.00,WeatherCatV1.11B39,2013-07-08 21:06:00,
2013-07-08 17:11:00,86.1,76.4,30.06,SSE,151,0.0,0.0,73,0.00,,,0.00,WeatherCatV1.11B39,2013-07-08 21:11:00,
2013-07-08 17:16:00,86.1,76.4,30.05,SSE,147,0.0,0.0,73,0.00,,,0.00,WeatherCatV1.11B39,2013-07-08 21:16:00,
2013-07-08 17:21:00,86.3,76.6,30.05,SSE,150,0.0,0.0,73,0.00,,,0.00,WeatherCatV1.11B39,2013-07-08 21:21:00,
2013-07-08 17:26:00,86.3,76.6,30.05,SSE,151,0.0,0.0,73,0.00,,,0.00,WeatherCatV1.11B39,2013-07-08 21:26:00,
2013-07-08 17:31:00,86.3,75.3,30.05,SSE,154,0.0,0.0,70,0.00,,,0.00,WeatherCatV1.11B39,2013-07-08 21:31:00,
2013-07-08 17:36:00,86.3,75.3,30.05,SSE,154,0.0,0.0,70,0.00,,,0.00,WeatherCatV1.11B39,2013-07-08 21:36:00,
2013-07-08 17:41:00,86.3,75.3,30.05,SSE,160,0.0,0.0,70,0.00,,,0.00,WeatherCatV1.11B39,2013-07-08 21:41:00,
2013-07-08 17:46:00,86.3,75.8,30.05,SSE,161,0.0,0.0,71,0.00,,,0.00,WeatherCatV1.11B39,2013-07-08 21:46:00,
2013-07-08 17:51:00,86.3,75.8,30.05,SSE,162,0.0,0.0,71,0.00,,,0.00,WeatherCatV1.11B39,2013-07-08 21:51:00,
2013-07-08 17:56:00,83.6,73.2,30.05,SSE,162,0.0,0.0,71,0.00,,,0.00,WeatherCatV1.11B39,2013-07-08 21:56:00,
2013-07-08 18:01:00,83.6,73.2,30.05,SSE,162,0.0,0.0,71,0.00,,,0.00,WeatherCatV1.11B39,2013-07-08 22:01:00,
2013-07-08 18:06:00,83.6,73.2,30.05,SSE,162,0.0,0.0,71,0.00,,,0.00,WeatherCatV1.11B39,2013-07-08 22:06:00,
2013-07-08 18:11:00,83.6,73.2,30.05,SSE,162,0.0,0.0,71,0.00,,,0.00,WeatherCatV1.11B39,2013-07-08 22:11:00,
2013-07-08 18:16:00,83.6,73.2,30.05,SSE,162,0.0,0.0,71,0.00,,,0.00,WeatherCatV1.11B39,2013-07-08 22:16:00,
2013-07-08 18:21:00,83.4,73.0,30.05,SSE,162,0.0,0.0,71,0.00,,,0.00,WeatherCatV1.11B39,2013-07-08 22:21:00,
2013-07-08 18:26:00,83.4,73.0,30.05,SSE,164,0.0,0.0,71,0.00,,,0.00,WeatherCatV1.11B39,2013-07-08 22:26:00,
2013-07-08 18:31:00,82.8,72.4,30.05,SSE,160,0.0,0.0,71,0.00,,,0.00,WeatherCatV1.11B39,2013-07-08 22:31:00,
2013-07-08 18:36:00,82.8,72.4,30.05,SSE,157,0.0,0.0,71,0.00,,,0.00,WeatherCatV1.11B39,2013-07-08 22:36:00,
2013-07-08 18:41:00,82.8,73.6,30.05,SSE,157,0.0,0.0,74,0.00,,,0.00,WeatherCatV1.11B39,2013-07-08 22:41:00,
2013-07-08 18:46:00,82.4,73.3,30.05,SSE,157,0.0,0.0,74,0.00,,,0.00,WeatherCatV1.11B39,2013-07-08 22:46:00,
2013-07-08 18:51:00,81.8,72.7,30.05,SSE,157,0.0,0.0,74,0.00,,,0.00,WeatherCatV1.11B39,2013-07-08 22:51:00,
2013-07-08 18:56:00,81.8,72.7,30.05,SSE,157,0.0,0.0,74,0.00,,,0.00,WeatherCatV1.11B39,2013-07-08 22:56:00,
2013-07-08 19:01:00,81.4,72.3,30.07,NW,318,0.0,0.0,74,0.00,,,0.00,WeatherCatV1.11B39,2013-07-08 23:01:00,
2013-07-08 19:06:00,81.4,72.3,30.07,NW,318,0.0,0.0,74,0.00,,,0.00,WeatherCatV1.11B39,2013-07-08 23:06:00,
2013-07-08 19:11:00,80.3,71.2,30.07,NW,313,0.0,0.0,74,0.00,,,0.00,WeatherCatV1.11B39,2013-07-08 23:11:00,
2013-07-08 19:16:00,80.3,72.8,30.07,NW,315,0.0,0.0,78,0.00,,,0.00,WeatherCatV1.11B39,2013-07-08 23:16:00,
2013-07-08 19:21:00,79.2,71.7,30.07,NW,315,0.0,0.0,78,0.00,,,0.00,WeatherCatV1.11B39,2013-07-08 23:21:00,
2013-07-08 19:26:00,79.2,71.7,30.07,NW,315,0.0,0.0,78,0.00,,,0.00,WeatherCatV1.11B39,2013-07-08 23:26:00,
2013-07-08 19:31:00,79.2,71.7,30.07,NW,315,0.0,0.0,78,0.00,,,0.00,WeatherCatV1.11B39,2013-07-08 23:31:00,
2013-07-08 19:36:00,78.3,70.9,30.07,NW,315,0.0,0.0,78,0.00,,,0.00,WeatherCatV1.11B39,2013-07-08 23:36:00,
2013-07-08 19:41:00,78.1,70.7,30.07,NW,323,0.0,0.0,78,0.00,,,0.00,WeatherCatV1.11B39,2013-07-08 23:41:00,
2013-07-08 19:46:00,77.7,70.3,30.08,NW,323,0.0,0.0,78,0.00,,,0.00,WeatherCatV1.11B39,2013-07-08 23:46:00,
2013-07-08 19:51:00,77.4,70.0,30.08,NW,323,0.0,0.0,78,0.00,,,0.00,WeatherCatV1.11B39,2013-07-08 23:51:00,
2013-07-08 19:56:00,77.4,70.0,30.08,NW,323,0.0,0.0,78,0.00,,,0.00,WeatherCatV1.11B39,2013-07-08 23:56:00,
2013-07-08 20:01:00,77.0,69.6,30.08,NW,323,0.0,0.0,78,0.00,,,0.06,WeatherCatV1.11B39,2013-07-09 00:01:00,
2013-07-08 20:06:00,77.0,69.6,30.08,NW,323,0.0,0.0,78,0.00,,,0.08,WeatherCatV1.11B39,2013-07-09 00:06:00,
2013-07-08 20:11:00,76.7,69.3,30.08,NW,323,0.0,0.0,78,0.13,,,0.08,WeatherCatV1.11B39,2013-07-09 00:11:00,
2013-07-08 20:16:00,76.7,69.3,30.07,NW,323,0.0,0.0,78,0.13,,,0.08,WeatherCatV1.11B39,2013-07-09 00:16:00,
2013-07-08 20:21:00,76.5,69.1,30.07,NW,323,0.0,0.0,78,0.13,,,0.08,WeatherCatV1.11B39,2013-07-09 00:21:00,
2013-07-08 20:26:00,76.3,68.9,30.07,WSW,240,0.0,0.0,78,0.07,,,0.08,WeatherCatV1.11B39,2013-07-09 00:26:00,
2013-07-08 20:31:00,76.3,68.9,30.07,WSW,240,0.0,0.0,78,0.07,,,0.11,WeatherCatV1.11B39,2013-07-09 00:31:00,
2013-07-08 20:36:00,76.3,68.9,30.07,SE,127,0.0,0.0,78,0.00,,,0.11,WeatherCatV1.11B39,2013-07-09 00:36:00,
2013-07-08 20:41:00,76.3,68.9,30.07,SE,127,0.0,0.0,78,0.00,,,0.11,WeatherCatV1.11B39,2013-07-09 00:41:00,
2013-07-08 20:46:00,76.3,68.9,30.09,South,169,0.0,0.0,78,0.00,,,0.11,WeatherCatV1.11B39,2013-07-09 00:46:00,
2013-07-08 20:51:00,75.6,72.1,30.09,NNE,28,1.0,7.0,89,0.00,,,0.11,WeatherCatV1.11B39,2013-07-09 00:51:00,
2013-07-08 20:56:00,75.6,72.1,30.09,SE,130,13.0,13.0,89,0.00,,,0.11,WeatherCatV1.11B39,2013-07-09 00:56:00,
2013-07-08 21:01:00,75.6,72.1,30.10,SE,130,13.0,13.0,89,0.00,,,0.11,WeatherCatV1.11B39,2013-07-09 01:01:00,
2013-07-08 21:06:00,75.6,72.1,30.10,South,174,7.0,7.0,89,0.29,,,0.11,WeatherCatV1.11B39,2013-07-09 01:06:00,
2013-07-08 21:11:00,75.6,72.1,30.10,SW,219,0.0,0.0,89,0.12,,,0.25,WeatherCatV1.11B39,2013-07-09 01:11:00,
2013-07-08 21:16:00,74.2,70.7,30.10,East,85,3.0,10.0,89,0.11,,,0.25,WeatherCatV1.11B39,2013-07-09 01:16:00,
2013-07-08 21:21:00,74.2,70.7,30.10,East,89,3.0,3.0,89,0.05,,,0.25,WeatherCatV1.11B39,2013-07-09 01:21:00,
2013-07-08 21:26:00,74.0,70.5,30.10,ESE,119,5.0,6.0,89,0.00,,,0.25,WeatherCatV1.11B39,2013-07-09 01:26:00,
2013-07-08 21:31:00,74.2,70.7,30.09,SE,128,5.0,11.0,89,0.00,,,0.25,WeatherCatV1.11B39,2013-07-09 01:31:00,
2013-07-08 21:36:00,74.2,70.7,30.09,SE,128,5.0,5.0,89,0.00,,,0.25,WeatherCatV1.11B39,2013-07-09 01:36:00,
2013-07-08 21:41:00,74.2,71.1,30.09,SSE,168,0.0,0.0,90,0.00,,,0.25,WeatherCatV1.11B39,2013-07-09 01:41:00,
2013-07-08 21:46:00,74.6,71.5,30.09,SSE,167,0.0,0.0,90,0.00,,,0.25,WeatherCatV1.11B39,2013-07-09 01:46:00,
2013-07-08 21:51:00,74.0,70.9,30.09,SW,227,0.0,0.0,90,0.00,,,0.25,WeatherCatV1.11B39,2013-07-09 01:51:00,
2013-07-08 21:56:00,74.0,70.9,30.09,SW,227,0.0,0.0,90,0.00,,,0.25,WeatherCatV1.11B39,2013-07-09 01:56:00,
2013-07-08 22:01:00,74.0,70.9,30.12,SW,227,0.0,0.0,90,0.00,,,0.25,WeatherCatV1.11B39,2013-07-09 02:01:00,
2013-07-08 22:06:00,74.0,70.9,30.12,SW,227,0.0,0.0,90,0.00,,,0.25,WeatherCatV1.11B39,2013-07-09 02:06:00,
2013-07-08 22:11:00,74.0,70.9,30.12,SW,226,0.0,0.0,90,0.00,,,0.25,WeatherCatV1.11B39,2013-07-09 02:11:00,
2013-07-08 22:16:00,74.0,70.9,30.12,SW,223,0.0,0.0,90,0.00,,,0.25,WeatherCatV1.11B39,2013-07-09 02:16:00,
2013-07-08 22:21:00,74.0,70.9,30.12,SW,223,0.0,0.0,90,0.00,,,0.25,WeatherCatV1.11B39,2013-07-09 02:21:00,
2013-07-08 22:26:00,73.7,70.6,30.12,ESE,109,0.0,0.0,90,0.00,,,0.25,WeatherCatV1.11B39,2013-07-09 02:26:00,
2013-07-08 22:31:00,73.5,70.4,30.12,ESE,109,0.0,0.0,90,0.00,,,0.25,WeatherCatV1.11B39,2013-07-09 02:31:00,
2013-07-08 22:36:00,73.5,70.4,30.12,ESE,119,0.0,0.0,90,0.00,,,0.25,WeatherCatV1.11B39,2013-07-09 02:36:00,
2013-07-08 22:41:00,73.3,70.2,30.12,ESE,119,0.0,0.0,90,0.04,,,0.25,WeatherCatV1.11B39,2013-07-09 02:41:00,
2013-07-08 22:46:00,73.2,70.1,30.12,ESE,119,0.0,0.0,90,0.04,,,0.27,WeatherCatV1.11B39,2013-07-09 02:46:00,
2013-07-08 22:51:00,73.3,70.2,30.12,ESE,119,0.0,0.0,90,0.04,,,0.27,WeatherCatV1.11B39,2013-07-09 02:51:00,
2013-07-08 22:56:00,73.3,70.2,30.12,ESE,119,0.0,0.0,90,0.04,,,0.27,WeatherCatV1.11B39,2013-07-09 02:56:00,
2013-07-08 23:01:00,73.3,70.2,30.12,ESE,119,0.0,0.0,90,0.00,,,0.27,WeatherCatV1.11B39,2013-07-09 03:01:00,
2013-07-08 23:06:00,73.3,70.2,30.12,ESE,119,0.0,0.0,90,0.00,,,0.27,WeatherCatV1.11B39,2013-07-09 03:06:00,
2013-07-08 23:11:00,73.3,70.2,30.12,ESE,119,0.0,0.0,90,0.00,,,0.27,WeatherCatV1.11B39,2013-07-09 03:11:00,
2013-07-08 23:16:00,73.3,70.2,30.12,ESE,119,0.0,0.0,90,0.00,,,0.27,WeatherCatV1.11B39,2013-07-09 03:16:00,
2013-07-08 23:21:00,73.3,70.2,30.12,ESE,119,0.0,0.0,90,0.00,,,0.27,WeatherCatV1.11B39,2013-07-09 03:21:00,
2013-07-08 23:26:00,73.5,70.4,30.12,ESE,119,0.0,0.0,90,0.00,,,0.27,WeatherCatV1.11B39,2013-07-09 03:26:00,
2013-07-08 23:31:00,73.5,70.4,30.12,ESE,119,0.0,0.0,90,0.00,,,0.27,WeatherCatV1.11B39,2013-07-09 03:31:00,
2013-07-08 23:36:00,73.5,70.4,30.12,ESE,119,0.0,0.0,90,0.00,,,0.27,WeatherCatV1.11B39,2013-07-09 03:36:00,
2013-07-08 23:41:00,73.5,71.0,30.12,ESE,119,0.0,0.0,92,0.00,,,0.27,WeatherCatV1.11B39,2013-07-09 03:41:00,
2013-07-08 23:46:00,73.5,71.0,30.12,ESE,119,0.0,0.0,92,0.00,,,0.27,WeatherCatV1.11B39,2013-07-09 03:46:00,
2013-07-08 23:51:00,73.3,70.8,30.12,ESE,119,0.0,0.0,92,0.00,,,0.27,WeatherCatV1.11B39,2013-07-09 03:51:00,
2013-07-08 23:56:00,73.3,70.8,30.12,ESE,119,0.0,0.0,92,0.00,,,0.27,WeatherCatV1.11B39,2013-07-09 03:56:00,